Skip Navigation Links Skip Navigation Links

Current Weather

Cobb County-Mc Collum Field, Marietta, Ga.

For information only: do not use for flight planning or navigation.
Latest weather
Observation time Wednesday, January 27, 2021 11:50 AM EST
Local time Wednesday, January 27, 2021 12:19 PM EST
Flight conditions Visual Meteorological Conditions
Winds
Wind direction East-Southeast (110°)
Wind speed 9 mph
Visibility 10 mi.
Sky condition
Ceiling 10,000 ft. broken clouds
Cloud layer scattered clouds 8,000 ft.
Cloud layer broken clouds 10,000 ft.
Temperature 57°F
Dewpoint 51°F
Altimeter 30.04 in.Hg
Derived measurements
Relative humidity 81%
Density altitude 954 ft.
Sea-level pressure 32.17 in.Hg
Remarks
System requires maintenance.
Automated weather observing station with precipitation discriminator.
Precipitation sensor not operating.
METAR KRYY 271650Z 11008KT 10SM SCT080 BKN100 14/11 A3004 RMK AO2 SLP894 T01390106 PNO $

Settings

Location code

InnerDrive.Weather 4.0.6770.0 Release CLR 4.0.30319.42000
Copyright ©2018 Inner Drive Technology. All rights reserved. Portions Copyright ©1986-2018 David Braverman.

Find weather

Site navigation


Skip Navigation Links

Place info

Page info

PayPal - The safer, easier way to pay online!

Return home.

Copyright ©2021 Inner Drive Technology. Purveyors of fine, hand-crafted computer software. Page printed 2021-01-27T17:19:38 UTC.